sensor_id;sensor_type;location;lat;lon;timestamp;pressure;altitude;pressure_sealevel;temperature;humidity
37450;BME280;23309;52.582;13.406;2022-09-29T00:02:10;99480.31;;;18.38;44.01
37450;BME280;23309;52.582;13.406;2022-09-29T00:04:36;99472.00;;;18.27;43.91
37450;BME280;23309;52.582;13.406;2022-09-29T00:07:02;99486.59;;;18.26;44.04
37450;BME280;23309;52.582;13.406;2022-09-29T00:09:29;99476.41;;;18.21;44.15
37450;BME280;23309;52.582;13.406;2022-09-29T00:11:55;99472.09;;;18.07;44.63
37450;BME280;23309;52.582;13.406;2022-09-29T00:14:22;99481.47;;;17.98;44.48
37450;BME280;23309;52.582;13.406;2022-09-29T00:16:48;99479.22;;;17.95;44.87
37450;BME280;23309;52.582;13.406;2022-09-29T00:19:18;99483.78;;;17.88;45.15
37450;BME280;23309;52.582;13.406;2022-09-29T00:21:44;99472.19;;;17.75;45.17
37450;BME280;23309;52.582;13.406;2022-09-29T00:24:10;99472.22;;;17.68;45.37
37450;BME280;23309;52.582;13.406;2022-09-29T00:26:37;99484.88;;;17.74;45.62
37450;BME280;23309;52.582;13.406;2022-09-29T00:29:03;99476.13;;;17.66;45.47
37450;BME280;23309;52.582;13.406;2022-09-29T00:31:32;99469.94;;;17.65;45.50
37450;BME280;23309;52.582;13.406;2022-09-29T00:33:58;99474.06;;;17.68;45.79
37450;BME280;23309;52.582;13.406;2022-09-29T00:36:29;99472.59;;;17.78;45.43
37450;BME280;23309;52.582;13.406;2022-09-29T00:38:56;99491.91;;;17.82;45.61
37450;BME280;23309;52.582;13.406;2022-09-29T00:41:25;99478.00;;;17.78;45.14
37450;BME280;23309;52.582;13.406;2022-09-29T00:43:56;99488.59;;;17.86;44.98
37450;BME280;23309;52.582;13.406;2022-09-29T00:46:42;99484.63;;;17.95;44.48
37450;BME280;23309;52.582;13.406;2022-09-29T00:49:17;99479.84;;;17.84;44.86
37450;BME280;23309;52.582;13.406;2022-09-29T00:51:51;99483.19;;;17.80;44.85
37450;BME280;23309;52.582;13.406;2022-09-29T00:54:19;99470.34;;;17.62;45.20
37450;BME280;23309;52.582;13.406;2022-09-29T00:56:47;99483.03;;;17.68;45.61
37450;BME280;23309;52.582;13.406;2022-09-29T00:59:20;99481.97;;;17.69;45.11
37450;BME280;23309;52.582;13.406;2022-09-29T01:01:49;99478.88;;;17.59;45.28
37450;BME280;23309;52.582;13.406;2022-09-29T01:04:20;99470.97;;;17.58;44.83
37450;BME280;23309;52.582;13.406;2022-09-29T01:06:53;99477.84;;;17.60;44.60
37450;BME280;23309;52.582;13.406;2022-09-29T01:09:25;99488.19;;;17.63;44.30
37450;BME280;23309;52.582;13.406;2022-09-29T01:11:54;99472.66;;;17.52;44.42
37450;BME280;23309;52.582;13.406;2022-09-29T01:14:21;99445.63;;;17.33;44.45
37450;BME280;23309;52.582;13.406;2022-09-29T01:16:50;99484.69;;;17.50;44.67
37450;BME280;23309;52.582;13.406;2022-09-29T01:19:22;99484.91;;;17.55;44.39
37450;BME280;23309;52.582;13.406;2022-09-29T01:22:07;99493.84;;;17.62;43.64
37450;BME280;23309;52.582;13.406;2022-09-29T01:24:55;99488.44;;;17.55;44.18
37450;BME280;23309;52.582;13.406;2022-09-29T01:27:39;99505.66;;;17.54;43.70
37450;BME280;23309;52.582;13.406;2022-09-29T01:30:16;99506.50;;;17.48;43.97
37450;BME280;23309;52.582;13.406;2022-09-29T01:33:21;99503.78;;;17.55;43.61
37450;BME280;23309;52.582;13.406;2022-09-29T01:35:58;99509.56;;;17.39;44.16
37450;BME280;23309;52.582;13.406;2022-09-29T01:38:53;99512.09;;;17.47;44.04
37450;BME280;23309;52.582;13.406;2022-09-29T01:41:31;99494.41;;;17.25;44.56
37450;BME280;23309;52.582;13.406;2022-09-29T01:44:05;99503.38;;;17.32;44.25
37450;BME280;23309;52.582;13.406;2022-09-29T01:46:39;99515.19;;;17.31;44.76
37450;BME280;23309;52.582;13.406;2022-09-29T01:49:12;99500.25;;;17.15;45.19
37450;BME280;23309;52.582;13.406;2022-09-29T01:51:43;99519.75;;;17.24;45.21
37450;BME280;23309;52.582;13.406;2022-09-29T01:54:18;99519.53;;;17.19;45.90
37450;BME280;23309;52.582;13.406;2022-09-29T01:56:50;99518.28;;;17.15;45.93
37450;BME280;23309;52.582;13.406;2022-09-29T01:59:23;99507.91;;;17.12;46.00
37450;BME280;23309;52.582;13.406;2022-09-29T02:01:56;99520.59;;;17.18;45.64
37450;BME280;23309;52.582;13.406;2022-09-29T02:04:32;99514.75;;;17.21;45.67
37450;BME280;23309;52.582;13.406;2022-09-29T02:07:05;99523.91;;;17.20;45.58
37450;BME280;23309;52.582;13.406;2022-09-29T02:09:37;99532.44;;;17.23;45.44
37450;BME280;23309;52.582;13.406;2022-09-29T02:12:05;99538.66;;;17.24;45.82
37450;BME280;23309;52.582;13.406;2022-09-29T02:14:38;99535.53;;;17.27;45.71
37450;BME280;23309;52.582;13.406;2022-09-29T02:17:10;99537.19;;;17.28;45.83
37450;BME280;23309;52.582;13.406;2022-09-29T02:19:42;99527.44;;;17.27;45.92
37450;BME280;23309;52.582;13.406;2022-09-29T02:22:08;99530.16;;;17.27;46.31
37450;BME280;23309;52.582;13.406;2022-09-29T02:24:38;99537.81;;;17.36;45.94
37450;BME280;23309;52.582;13.406;2022-09-29T02:27:04;99521.63;;;17.30;46.01
37450;BME280;23309;52.582;13.406;2022-09-29T02:29:32;99528.91;;;17.36;45.77
37450;BME280;23309;52.582;13.406;2022-09-29T02:31:59;99516.66;;;17.33;45.87
37450;BME280;23309;52.582;13.406;2022-09-29T02:34:25;99532.44;;;17.49;45.86
37450;BME280;23309;52.582;13.406;2022-09-29T02:37:01;99511.91;;;17.48;45.72
37450;BME280;23309;52.582;13.406;2022-09-29T02:39:38;99529.75;;;17.56;45.73
37450;BME280;23309;52.582;13.406;2022-09-29T02:42:17;99538.25;;;17.72;45.70
37450;BME280;23309;52.582;13.406;2022-09-29T02:45:05;99538.47;;;17.77;45.41
37450;BME280;23309;52.582;13.406;2022-09-29T02:47:56;99551.13;;;17.83;45.39
37450;BME280;23309;52.582;13.406;2022-09-29T02:50:50;99541.13;;;17.90;44.94
37450;BME280;23309;52.582;13.406;2022-09-29T02:53:35;99536.16;;;17.87;45.62
37450;BME280;23309;52.582;13.406;2022-09-29T02:56:07;99522.88;;;17.79;45.34
37450;BME280;23309;52.582;13.406;2022-09-29T02:58:41;99546.53;;;17.97;45.15
37450;BME280;23309;52.582;13.406;2022-09-29T03:01:09;99538.66;;;17.95;45.38
37450;BME280;23309;52.582;13.406;2022-09-29T03:03:35;99540.91;;;17.98;45.53
37450;BME280;23309;52.582;13.406;2022-09-29T03:06:02;99540.50;;;17.95;45.33
37450;BME280;23309;52.582;13.406;2022-09-29T03:08:31;99551.31;;;18.01;45.79
37450;BME280;23309;52.582;13.406;2022-09-29T03:10:57;99552.38;;;17.94;45.67
37450;BME280;23309;52.582;13.406;2022-09-29T03:13:23;99547.56;;;17.96;45.57
37450;BME280;23309;52.582;13.406;2022-09-29T03:15:49;99551.13;;;17.90;46.04
37450;BME280;23309;52.582;13.406;2022-09-29T03:18:15;99558.19;;;17.91;46.22
37450;BME280;23309;52.582;13.406;2022-09-29T03:20:41;99554.44;;;17.92;46.35
37450;BME280;23309;52.582;13.406;2022-09-29T03:23:09;99548.44;;;17.90;46.11
37450;BME280;23309;52.582;13.406;2022-09-29T03:25:38;99557.56;;;18.02;46.02
37450;BME280;23309;52.582;13.406;2022-09-29T03:28:04;99537.16;;;17.99;46.45
37450;BME280;23309;52.582;13.406;2022-09-29T03:30:30;99551.09;;;18.03;46.02
37450;BME280;23309;52.582;13.406;2022-09-29T03:32:56;99545.06;;;17.94;46.23
37450;BME280;23309;52.582;13.406;2022-09-29T03:35:22;99554.00;;;18.01;45.88
37450;BME280;23309;52.582;13.406;2022-09-29T03:37:48;99551.31;;;18.01;45.88
37450;BME280;23309;52.582;13.406;2022-09-29T03:40:15;99554.63;;;18.03;46.11
37450;BME280;23309;52.582;13.406;2022-09-29T03:42:44;99541.09;;;18.03;45.84
37450;BME280;23309;52.582;13.406;2022-09-29T03:45:11;99554.38;;;18.18;45.67
37450;BME280;23309;52.582;13.406;2022-09-29T03:47:37;99558.94;;;18.24;45.62
37450;BME280;23309;52.582;13.406;2022-09-29T03:50:03;99561.00;;;18.28;45.43
37450;BME280;23309;52.582;13.406;2022-09-29T03:52:30;99556.66;;;18.27;45.76
37450;BME280;23309;52.582;13.406;2022-09-29T03:54:56;99557.47;;;18.34;45.33
37450;BME280;23309;52.582;13.406;2022-09-29T03:57:22;99564.31;;;18.43;45.27
37450;BME280;23309;52.582;13.406;2022-09-29T03:59:50;99553.28;;;18.45;44.92
37450;BME280;23309;52.582;13.406;2022-09-29T04:02:16;99570.50;;;18.64;44.69
37450;BME280;23309;52.582;13.406;2022-09-29T04:04:43;99573.78;;;18.66;44.61
37450;BME280;23309;52.582;13.406;2022-09-29T04:07:09;99570.69;;;18.62;44.89
37450;BME280;23309;52.582;13.406;2022-09-29T04:09:36;99570.47;;;18.70;44.76
37450;BME280;23309;52.582;13.406;2022-09-29T04:12:02;99580.41;;;18.76;44.60
37450;BME280;23309;52.582;13.406;2022-09-29T04:14:28;99580.22;;;18.78;44.37
37450;BME280;23309;52.582;13.406;2022-09-29T04:16:57;99564.59;;;18.73;44.37
37450;BME280;23309;52.582;13.406;2022-09-29T04:19:23;99574.41;;;18.74;44.56
37450;BME280;23309;52.582;13.406;2022-09-29T04:21:49;99566.75;;;18.58;44.72
37450;BME280;23309;52.582;13.406;2022-09-29T04:24:15;99591.69;;;18.67;44.55
37450;BME280;23309;52.582;13.406;2022-09-29T04:26:41;99588.59;;;18.63;44.77
37450;BME280;23309;52.582;13.406;2022-09-29T04:29:07;99589.00;;;18.60;44.62
37450;BME280;23309;52.582;13.406;2022-09-29T04:31:33;99587.16;;;18.54;44.75
37450;BME280;23309;52.582;13.406;2022-09-29T04:34:02;99580.97;;;18.47;44.81
37450;BME280;23309;52.582;13.406;2022-09-29T04:36:28;99586.56;;;18.46;44.82
37450;BME280;23309;52.582;13.406;2022-09-29T04:38:54;99579.28;;;18.46;44.92
37450;BME280;23309;52.582;13.406;2022-09-29T04:41:20;99597.78;;;18.56;44.85
37450;BME280;23309;52.582;13.406;2022-09-29T04:43:46;99596.91;;;18.62;44.66
37450;BME280;23309;52.582;13.406;2022-09-29T04:46:13;99598.56;;;18.63;44.90
37450;BME280;23309;52.582;13.406;2022-09-29T04:48:39;99598.63;;;18.56;44.83
37450;BME280;23309;52.582;13.406;2022-09-29T04:51:09;99599.41;;;18.57;44.64
37450;BME280;23309;52.582;13.406;2022-09-29T04:53:35;99580.34;;;18.38;44.54
37450;BME280;23309;52.582;13.406;2022-09-29T04:56:05;99608.16;;;18.59;44.58
37450;BME280;23309;52.582;13.406;2022-09-29T04:58:33;99612.94;;;18.63;44.60
37450;BME280;23309;52.582;13.406;2022-09-29T05:01:07;99597.75;;;18.62;44.70
37450;BME280;23309;52.582;13.406;2022-09-29T05:03:34;99599.41;;;18.57;44.36
37450;BME280;23309;52.582;13.406;2022-09-29T05:06:00;99616.69;;;18.62;44.51
37450;BME280;23309;52.582;13.406;2022-09-29T05:08:29;99607.31;;;18.58;44.60
37450;BME280;23309;52.582;13.406;2022-09-29T05:10:55;99612.94;;;18.63;44.63
37450;BME280;23309;52.582;13.406;2022-09-29T05:13:21;99609.59;;;18.68;44.31
37450;BME280;23309;52.582;13.406;2022-09-29T05:15:47;99612.09;;;18.63;44.16
37450;BME280;23309;52.582;13.406;2022-09-29T05:18:16;99630.41;;;18.67;44.65
37450;BME280;23309;52.582;13.406;2022-09-29T05:20:42;99609.84;;;18.53;44.24
37450;BME280;23309;52.582;13.406;2022-09-29T05:23:08;99619.41;;;18.56;44.56
37450;BME280;23309;52.582;13.406;2022-09-29T05:25:37;99632.09;;;18.55;44.38
37450;BME280;23309;52.582;13.406;2022-09-29T05:28:03;99630.84;;;18.51;44.56
37450;BME280;23309;52.582;13.406;2022-09-29T05:30:29;99629.59;;;18.53;44.81
37450;BME280;23309;52.582;13.406;2022-09-29T05:32:55;99636.88;;;18.53;44.55
37450;BME280;23309;52.582;13.406;2022-09-29T05:35:21;99622.53;;;18.52;44.65
37450;BME280;23309;52.582;13.406;2022-09-29T05:37:47;99633.97;;;18.61;44.35
37450;BME280;23309;52.582;13.406;2022-09-29T05:40:14;99628.75;;;18.60;44.29
37450;BME280;23309;52.582;13.406;2022-09-29T05:42:42;99633.97;;;18.61;44.64
37450;BME280;23309;52.582;13.406;2022-09-29T05:45:09;99626.88;;;18.60;44.63
37450;BME280;23309;52.582;13.406;2022-09-29T05:47:35;99636.88;;;18.60;44.28
37450;BME280;23309;52.582;13.406;2022-09-29T05:50:01;99615.03;;;18.55;44.45
37450;BME280;23309;52.582;13.406;2022-09-29T05:52:27;99633.13;;;18.54;44.83
37450;BME280;23309;52.582;13.406;2022-09-29T05:54:53;99627.31;;;18.51;44.73
37450;BME280;23309;52.582;13.406;2022-09-29T05:57:19;99637.50;;;18.55;44.77
37450;BME280;23309;52.582;13.406;2022-09-29T05:59:48;99630.22;;;18.56;44.88
37450;BME280;23309;52.582;13.406;2022-09-29T06:02:14;99632.09;;;18.55;45.07
37450;BME280;23309;52.582;13.406;2022-09-29T06:04:40;99626.88;;;18.53;44.79
37450;BME280;23309;52.582;13.406;2022-09-29T06:07:06;99636.88;;;18.60;44.77
37450;BME280;23309;52.582;13.406;2022-09-29T06:09:33;99635.22;;;18.59;44.83
37450;BME280;23309;52.582;13.406;2022-09-29T06:11:59;99632.91;;;18.62;44.53
37450;BME280;23309;52.582;13.406;2022-09-29T06:14:25;99640.56;;;18.72;44.67
37450;BME280;23309;52.582;13.406;2022-09-29T06:16:56;99628.94;;;18.65;44.74
37450;BME280;23309;52.582;13.406;2022-09-29T06:19:22;99640.78;;;18.77;44.46
37450;BME280;23309;52.582;13.406;2022-09-29T06:21:48;99642.84;;;18.75;44.55
37450;BME280;23309;52.582;13.406;2022-09-29T06:24:14;99645.56;;;18.75;44.25
37450;BME280;23309;52.582;13.406;2022-09-29T06:26:41;99637.25;;;18.70;44.46
37450;BME280;23309;52.582;13.406;2022-09-29T06:29:07;99646.41;;;18.75;44.50
37450;BME280;23309;52.582;13.406;2022-09-29T06:31:33;99646.56;;;18.80;44.57
37450;BME280;23309;52.582;13.406;2022-09-29T06:34:04;99660.06;;;18.93;44.50
37450;BME280;23309;52.582;13.406;2022-09-29T06:36:34;99648.88;;;18.83;44.44
37450;BME280;23309;52.582;13.406;2022-09-29T06:39:02;99648.66;;;18.78;44.09
37450;BME280;23309;52.582;13.406;2022-09-29T06:41:29;99615.22;;;18.66;44.55
37450;BME280;23309;52.582;13.406;2022-09-29T06:43:55;99658.16;;;18.94;44.06
37450;BME280;23309;52.582;13.406;2022-09-29T06:46:22;99650.91;;;18.94;44.39
37450;BME280;23309;52.582;13.406;2022-09-29T06:48:48;99652.72;;;19.00;44.02
37450;BME280;23309;52.582;13.406;2022-09-29T06:51:16;99645.44;;;19.01;43.96
37450;BME280;23309;52.582;13.406;2022-09-29T06:53:42;99655.16;;;19.15;44.13
37450;BME280;23309;52.582;13.406;2022-09-29T06:56:08;99651.81;;;19.19;43.79
37450;BME280;23309;52.582;13.406;2022-09-29T06:58:34;99659.09;;;19.25;43.74
37450;BME280;23309;52.582;13.406;2022-09-29T07:01:02;99646.16;;;19.21;43.48
37450;BME280;23309;52.582;13.406;2022-09-29T07:03:28;99659.50;;;19.29;43.52
37450;BME280;23309;52.582;13.406;2022-09-29T07:05:55;99664.50;;;19.32;43.48
37450;BME280;23309;52.582;13.406;2022-09-29T07:08:23;99644.47;;;19.33;43.17
37450;BME280;23309;52.582;13.406;2022-09-29T07:10:49;99663.41;;;19.39;43.17
37450;BME280;23309;52.582;13.406;2022-09-29T07:13:15;99656.72;;;19.42;43.50
37450;BME280;23309;52.582;13.406;2022-09-29T07:15:42;99660.81;;;19.51;43.29
37450;BME280;23309;52.582;13.406;2022-09-29T07:18:08;99652.69;;;19.51;43.35
37450;BME280;23309;52.582;13.406;2022-09-29T07:20:35;99672.13;;;19.72;42.73
37450;BME280;23309;52.582;13.406;2022-09-29T07:23:01;99674.59;;;19.80;42.79
37450;BME280;23309;52.582;13.406;2022-09-29T07:25:29;99673.22;;;19.96;42.23
37450;BME280;23309;52.582;13.406;2022-09-29T07:27:55;99668.16;;;19.99;42.12
37450;BME280;23309;52.582;13.406;2022-09-29T07:30:21;99660.50;;;19.96;42.28
37450;BME280;23309;52.582;13.406;2022-09-29T07:32:48;99678.50;;;20.15;42.13
37450;BME280;23309;52.582;13.406;2022-09-29T07:35:14;99670.38;;;20.15;41.78
37450;BME280;23309;52.582;13.406;2022-09-29T07:37:40;99660.75;;;20.19;41.52
37450;BME280;23309;52.582;13.406;2022-09-29T07:40:07;99683.19;;;20.26;41.53
37450;BME280;23309;52.582;13.406;2022-09-29T07:42:36;99692.06;;;20.40;41.56
37450;BME280;23309;52.582;13.406;2022-09-29T07:45:03;99690.56;;;20.44;41.32
37450;BME280;23309;52.582;13.406;2022-09-29T07:47:29;99691.31;;;20.51;41.18
37450;BME280;23309;52.582;13.406;2022-09-29T07:49:55;99682.34;;;20.50;41.02
37450;BME280;23309;52.582;13.406;2022-09-29T07:52:21;99697.06;;;20.61;41.08
37450;BME280;23309;52.582;13.406;2022-09-29T07:54:48;99706.16;;;20.66;40.57
37450;BME280;23309;52.582;13.406;2022-09-29T07:57:14;99689.59;;;20.56;40.78
37450;BME280;23309;52.582;13.406;2022-09-29T07:59:42;99694.19;;;20.74;40.44
37450;BME280;23309;52.582;13.406;2022-09-29T08:02:09;99699.19;;;20.77;40.41
37450;BME280;23309;52.582;13.406;2022-09-29T08:04:35;99705.66;;;20.76;40.63
37450;BME280;23309;52.582;13.406;2022-09-29T08:07:02;99711.31;;;20.74;40.32
37450;BME280;23309;52.582;13.406;2022-09-29T08:09:28;99702.19;;;20.69;40.08
37450;BME280;23309;52.582;13.406;2022-09-29T08:11:54;99709.28;;;20.70;40.10
37450;BME280;23309;52.582;13.406;2022-09-29T08:14:20;99708.81;;;20.73;40.54
37450;BME280;23309;52.582;13.406;2022-09-29T08:16:48;99675.94;;;20.63;40.20
37450;BME280;23309;52.582;13.406;2022-09-29T08:19:14;99709.13;;;20.83;40.09
37450;BME280;23309;52.582;13.406;2022-09-29T08:21:41;99709.31;;;20.88;40.10
37450;BME280;23309;52.582;13.406;2022-09-29T08:24:07;99733.91;;;21.11;39.65
37450;BME280;23309;52.582;13.406;2022-09-29T08:26:36;99738.44;;;21.17;39.24
37450;BME280;23309;52.582;13.406;2022-09-29T08:29:03;99722.22;;;21.10;39.51
37450;BME280;23309;52.582;13.406;2022-09-29T08:31:29;99737.50;;;21.23;39.06
37450;BME280;23309;52.582;13.406;2022-09-29T08:33:58;99733.50;;;21.25;38.91
37450;BME280;23309;52.582;13.406;2022-09-29T08:36:25;99723.34;;;21.21;38.88
37450;BME280;23309;52.582;13.406;2022-09-29T08:38:53;99725.91;;;21.34;39.17
37450;BME280;23309;52.582;13.406;2022-09-29T08:41:48;99730.59;;;21.56;38.49
37450;BME280;23309;52.582;13.406;2022-09-29T08:44:25;99727.44;;;21.59;38.50
37450;BME280;23309;52.582;13.406;2022-09-29T08:46:56;99745.00;;;21.75;38.20
37450;BME280;23309;52.582;13.406;2022-09-29T08:49:30;99745.41;;;21.90;37.93
37450;BME280;23309;52.582;13.406;2022-09-29T08:52:07;99742.00;;;21.94;37.83
37450;BME280;23309;52.582;13.406;2022-09-29T08:54:39;99740.97;;;22.07;37.70
37450;BME280;23309;52.582;13.406;2022-09-29T08:57:11;99752.75;;;22.30;37.28
37450;BME280;23309;52.582;13.406;2022-09-29T08:59:38;99749.31;;;22.35;36.83
37450;BME280;23309;52.582;13.406;2022-09-29T09:05:25;99745.81;;;22.69;36.24
37450;BME280;23309;52.582;13.406;2022-09-29T09:08:01;99749.97;;;22.71;36.09
37450;BME280;23309;52.582;13.406;2022-09-29T09:10:39;99753.63;;;22.88;35.33
37450;BME280;23309;52.582;13.406;2022-09-29T09:13:28;99751.38;;;22.97;35.65
37450;BME280;23309;52.582;13.406;2022-09-29T09:16:19;99755.16;;;23.19;35.66
37450;BME280;23309;52.582;13.406;2022-09-29T09:19:02;99757.25;;;23.40;35.14
37450;BME280;23309;52.582;13.406;2022-09-29T09:21:40;99750.34;;;23.49;34.92
37450;BME280;23309;52.582;13.406;2022-09-29T09:24:16;99755.03;;;23.65;34.40
37450;BME280;23309;52.582;13.406;2022-09-29T09:26:44;99753.31;;;23.47;33.82
37450;BME280;23309;52.582;13.406;2022-09-29T09:29:18;99761.84;;;23.51;33.86
37450;BME280;23309;52.582;13.406;2022-09-29T09:31:54;99737.59;;;23.26;33.96
37450;BME280;23309;52.582;13.406;2022-09-29T09:34:27;99757.72;;;23.37;34.39
37450;BME280;23309;52.582;13.406;2022-09-29T09:37:01;99750.59;;;23.47;34.22
37450;BME280;23309;52.582;13.406;2022-09-29T09:39:32;99756.53;;;23.72;34.18
37450;BME280;23309;52.582;13.406;2022-09-29T09:42:05;99760.94;;;24.01;33.54
37450;BME280;23309;52.582;13.406;2022-09-29T09:44:38;99769.47;;;24.21;32.58
37450;BME280;23309;52.582;13.406;2022-09-29T09:47:23;99769.59;;;24.43;32.26
37450;BME280;23309;52.582;13.406;2022-09-29T09:49:55;99776.63;;;24.39;32.01
37450;BME280;23309;52.582;13.406;2022-09-29T09:52:30;99766.22;;;24.69;32.38
37450;BME280;23309;52.582;13.406;2022-09-29T09:55:01;99773.00;;;24.99;31.48
37450;BME280;23309;52.582;13.406;2022-09-29T09:57:55;99777.19;;;25.45;30.90
37450;BME280;23309;52.582;13.406;2022-09-29T10:00:27;99757.66;;;25.36;30.61
37450;BME280;23309;52.582;13.406;2022-09-29T10:02:56;99767.16;;;25.50;30.53
37450;BME280;23309;52.582;13.406;2022-09-29T10:05:29;99773.25;;;25.58;29.51
37450;BME280;23309;52.582;13.406;2022-09-29T10:08:00;99790.03;;;25.66;29.60
37450;BME280;23309;52.582;13.406;2022-09-29T10:10:27;99787.88;;;25.46;29.73
37450;BME280;23309;52.582;13.406;2022-09-29T10:13:00;99780.56;;;25.52;29.69
37450;BME280;23309;52.582;13.406;2022-09-29T10:15:31;99781.44;;;25.79;29.92
37450;BME280;23309;52.582;13.406;2022-09-29T10:18:05;99791.38;;;26.07;29.83
37450;BME280;23309;52.582;13.406;2022-09-29T10:20:35;99799.09;;;26.15;28.95
37450;BME280;23309;52.582;13.406;2022-09-29T10:23:30;99794.03;;;26.28;27.86
37450;BME280;23309;52.582;13.406;2022-09-29T10:26:05;99796.56;;;26.08;28.57
37450;BME280;23309;52.582;13.406;2022-09-29T10:28:41;99790.78;;;26.05;28.26
37450;BME280;23309;52.582;13.406;2022-09-29T10:31:18;99789.31;;;26.24;28.66
37450;BME280;23309;52.582;13.406;2022-09-29T10:33:52;99785.03;;;26.59;28.42
37450;BME280;23309;52.582;13.406;2022-09-29T10:36:19;99793.19;;;27.22;27.84
37450;BME280;23309;52.582;13.406;2022-09-29T10:38:52;99788.16;;;27.56;26.75
37450;BME280;23309;52.582;13.406;2022-09-29T10:41:18;99789.22;;;27.55;26.65
37450;BME280;23309;52.582;13.406;2022-09-29T10:43:47;99793.97;;;27.74;26.44
37450;BME280;23309;52.582;13.406;2022-09-29T10:46:47;99797.44;;;28.36;26.33
37450;BME280;23309;52.582;13.406;2022-09-29T10:49:16;99791.41;;;28.34;24.99
37450;BME280;23309;52.582;13.406;2022-09-29T10:51:54;99794.44;;;28.38;24.85
37450;BME280;23309;52.582;13.406;2022-09-29T10:54:24;99783.69;;;28.11;24.50
37450;BME280;23309;52.582;13.406;2022-09-29T10:56:53;99801.75;;;27.97;25.32
37450;BME280;23309;52.582;13.406;2022-09-29T10:59:19;99801.25;;;28.15;25.66
37450;BME280;23309;52.582;13.406;2022-09-29T11:01:49;99798.34;;;28.77;24.66
37450;BME280;23309;52.582;13.406;2022-09-29T11:04:21;99796.59;;;29.36;23.81
37450;BME280;23309;52.582;13.406;2022-09-29T11:06:49;99798.81;;;29.29;23.73
37450;BME280;23309;52.582;13.406;2022-09-29T11:09:37;99796.94;;;28.94;23.76
37450;BME280;23309;52.582;13.406;2022-09-29T11:12:04;99796.94;;;28.49;23.84
37450;BME280;23309;52.582;13.406;2022-09-29T11:14:39;99801.56;;;28.14;24.69
37450;BME280;23309;52.582;13.406;2022-09-29T11:17:23;99803.31;;;27.73;25.09
37450;BME280;23309;52.582;13.406;2022-09-29T11:19:50;99819.06;;;27.41;25.19
37450;BME280;23309;52.582;13.406;2022-09-29T11:22:42;99811.72;;;27.10;25.32
37450;BME280;23309;52.582;13.406;2022-09-29T11:25:44;99826.78;;;26.76;25.66
37450;BME280;23309;52.582;13.406;2022-09-29T11:28:25;99831.91;;;26.94;25.41
37450;BME280;23309;52.582;13.406;2022-09-29T11:31:07;99832.44;;;26.96;25.54
37450;BME280;23309;52.582;13.406;2022-09-29T11:33:48;99836.91;;;26.71;25.90
37450;BME280;23309;52.582;13.406;2022-09-29T11:36:26;99834.47;;;26.48;26.37
37450;BME280;23309;52.582;13.406;2022-09-29T11:39:11;99824.88;;;26.45;26.24
37450;BME280;23309;52.582;13.406;2022-09-29T11:41:57;99829.22;;;26.41;26.46
37450;BME280;23309;52.582;13.406;2022-09-29T11:44:57;99827.84;;;26.70;26.00
37450;BME280;23309;52.582;13.406;2022-09-29T11:50:53;99826.88;;;26.55;26.14
37450;BME280;23309;52.582;13.406;2022-09-29T11:53:36;99831.47;;;26.49;26.08
37450;BME280;23309;52.582;13.406;2022-09-29T11:56:20;99831.06;;;26.36;26.49
37450;BME280;23309;52.582;13.406;2022-09-29T11:59:11;99836.41;;;26.21;25.88
37450;BME280;23309;52.582;13.406;2022-09-29T12:01:55;99832.53;;;25.95;25.85
37450;BME280;23309;52.582;13.406;2022-09-29T12:04:39;99830.78;;;25.89;26.25
37450;BME280;23309;52.582;13.406;2022-09-29T12:07:24;99830.94;;;25.77;26.52
37450;BME280;23309;52.582;13.406;2022-09-29T12:10:22;99827.09;;;25.78;26.48
37450;BME280;23309;52.582;13.406;2022-09-29T12:12:56;99817.88;;;25.63;25.91
37450;BME280;23309;52.582;13.406;2022-09-29T12:15:40;99835.78;;;25.71;25.34
37450;BME280;23309;52.582;13.406;2022-09-29T12:18:14;99838.97;;;25.63;26.60
37450;BME280;23309;52.582;13.406;2022-09-29T12:20:45;99834.16;;;25.53;26.38
37450;BME280;23309;52.582;13.406;2022-09-29T12:23:16;99818.53;;;25.48;26.50
37450;BME280;23309;52.582;13.406;2022-09-29T12:25:52;99827.69;;;25.59;26.78
37450;BME280;23309;52.582;13.406;2022-09-29T12:28:26;99827.13;;;25.57;26.78
37450;BME280;23309;52.582;13.406;2022-09-29T12:31:00;99837.41;;;25.50;26.96
37450;BME280;23309;52.582;13.406;2022-09-29T12:33:33;99832.81;;;25.34;26.61
37450;BME280;23309;52.582;13.406;2022-09-29T12:36:32;99832.94;;;25.44;26.98
37450;BME280;23309;52.582;13.406;2022-09-29T12:39:14;99827.16;;;25.40;27.60
37450;BME280;23309;52.582;13.406;2022-09-29T12:41:47;99816.44;;;25.55;27.37
37450;BME280;23309;52.582;13.406;2022-09-29T12:44:24;99834.63;;;25.88;26.98
37450;BME280;23309;52.582;13.406;2022-09-29T12:47:01;99826.66;;;26.08;26.95
37450;BME280;23309;52.582;13.406;2022-09-29T12:49:35;99836.41;;;26.21;25.66
37450;BME280;23309;52.582;13.406;2022-09-29T12:52:09;99829.88;;;26.27;25.65
37450;BME280;23309;52.582;13.406;2022-09-29T12:54:41;99835.84;;;26.45;25.18
37450;BME280;23309;52.582;13.406;2022-09-29T12:57:13;99831.91;;;26.63;24.92
37450;BME280;23309;52.582;13.406;2022-09-29T12:59:46;99846.31;;;26.80;24.73
37450;BME280;23309;52.582;13.406;2022-09-29T13:02:52;99838.38;;;26.83;24.75
37450;BME280;23309;52.582;13.406;2022-09-29T13:05:54;99846.53;;;26.73;25.51
37450;BME280;23309;52.582;13.406;2022-09-29T13:08:58;99850.28;;;26.67;25.45
37450;BME280;23309;52.582;13.406;2022-09-29T13:12:11;99842.19;;;26.56;25.65
37450;BME280;23309;52.582;13.406;2022-09-29T13:14:56;99848.13;;;26.43;25.94
37450;BME280;23309;52.582;13.406;2022-09-29T13:17:51;99836.75;;;26.29;25.40
37450;BME280;23309;52.582;13.406;2022-09-29T13:20:41;99847.34;;;26.21;26.03
37450;BME280;23309;52.582;13.406;2022-09-29T13:26:16;99842.72;;;26.00;26.18